PST,Max TemperatureF,Mean TemperatureF,Min TemperatureF,Max Dew PointF,MeanDew PointF,Min DewpointF,Max Humidity, Mean Humidity, Min Humidity, Max Sea Level PressureIn, Mean Sea Level PressureIn, Min Sea Level PressureIn, Max VisibilityMiles, Mean VisibilityMiles, Min VisibilityMiles, Max Wind SpeedMPH, Mean Wind SpeedMPH, Max Gust SpeedMPH,PrecipitationIn, CloudCover, Events, WindDirDegrees
2011-12-1,70,62,53,47,24,17,83,49,14,29.92,29.80,29.75,10,10,8,22,7,31,0.00,0,,33
2011-12-2,69,58,46,45,38,32,65,47,29,30.03,29.96,29.92,10,10,10,13,3,17,0.00,0,,111
2011-12-3,67,56,45,41,24,4,77,44,11,30.20,30.08,29.98,10,10,10,13,4,17,0.00,0,,80
2011-12-4,64,51,38,38,27,17,59,39,19,30.24,30.17,30.11,10,10,10,9,3,23,0.00,0,,170
2011-12-5,68,54,40,36,17,2,76,43,10,30.27,30.19,30.13,10,10,10,20,6,24,0.00,0,,81
2011-12-6,68,54,39,30,19,8,48,29,10,30.32,30.28,30.23,10,10,7,9,2,16,0.00,0,,338
2011-12-7,72,55,38,33,22,8,50,30,9,30.23,30.13,30.06,10,10,10,8,2,13,0.00,0,,299
2011-12-8,69,54,39,49,38,26,64,46,28,30.12,30.07,30.03,10,10,8,8,2,17,0.00,0,,175
2011-12-9,74,57,40,45,40,30,89,55,20,30.15,30.10,30.06,10,9,7,7,1,12,0.00,0,,210
2011-12-10,72,57,42,42,39,30,83,57,31,30.13,30.07,30.02,10,10,8,8,1,16,0.00,0,,140
2011-12-11,61,54,47,47,44,42,86,69,51,30.01,29.95,29.86,10,7,4,7,2,24,0.00,6,,139
2011-12-12,54,53,51,48,47,45,89,83,77,29.86,29.78,29.74,10,6,1,13,6,18,0.57,8,Rain,77
2011-12-13,64,57,49,46,45,41,86,66,46,30.09,29.94,29.84,10,10,9,10,2,24,0.06,2,,111
2011-12-14,65,56,46,48,45,42,86,67,48,30.26,30.21,30.10,10,9,6,9,4,23,0.00,3,,121
2011-12-15,61,52,43,47,44,40,86,72,57,30.24,30.14,30.06,10,7,3,8,2,16,0.00,2,Rain,126
2011-12-16,72,57,42,44,30,18,83,49,15,30.10,30.05,30.00,10,10,9,23,6,32,0.00,0,,42
2011-12-17,65,60,54,47,38,25,51,37,22,30.14,30.06,30.01,10,10,10,13,3,17,T,6,Rain,4
2011-12-18,64,56,48,52,48,45,86,71,56,30.18,30.12,30.07,10,9,6,8,2,10,0.00,5,,172
2011-12-19,61,56,50,49,47,45,83,69,55,30.09,30.05,30.00,10,8,6,10,3,21,0.00,6,,103
2011-12-20,69,57,45,48,44,41,89,64,39,30.04,29.99,29.93,10,9,6,8,1,39,0.00,0,,203
2011-12-21,65,54,42,51,45,36,83,68,53,30.09,30.03,29.97,10,9,7,9,4,,0.00,1,,101
2011-12-22,69,57,45,48,26,6,92,50,8,30.37,30.21,30.09,10,8,2,23,7,29,0.00,1,,76
2011-12-23,71,53,35,28,18,-3,64,35,6,30.45,30.38,30.34,10,10,10,7,1,16,0.00,0,,303
2011-12-24,76,57,38,30,22,7,64,36,7,30.37,30.33,30.25,10,10,6,7,2,43,0.00,0,,312
2011-12-25,77,58,39,31,25,13,64,37,9,30.33,30.26,30.18,10,10,10,8,1,14,0.00,0,,311
2011-12-26,75,59,42,42,31,21,53,34,14,30.24,30.20,30.17,10,10,10,7,2,,0.00,0,,99
2011-12-27,72,56,40,45,37,30,70,47,23,30.23,30.19,30.13,10,9,6,7,2,,0.00,0,,152
2011-12-28,80,60,40,41,36,29,83,50,16,30.22,30.15,30.09,10,9,6,6,1,8,0.00,0,,249
2011-12-29,76,61,45,53,42,33,71,49,27,30.09,30.03,29.96,10,9,6,7,0,24,0.00,0,,120
2011-12-30,67,57,46,51,47,42,96,74,52,30.09,30.02,29.98,8,4,0,7,1,10,0.00,1,Fog,223
2011-12-31,76,60,43,52,47,41,93,63,33,30.09,30.02,29.96,5,3,0,6,1,41,0.00,2,Fog,147